Terminal Aerodrome Forecast
Issued by NWS

Home | Current Version | Previous Version | Text Only | Print | Product List | Glossary On
Versions: 1 2 3 4 5 6 7 8 9 10 11
387
FTUS45 KABQ 100522
TAFTCC
TAF
KTCC 100522Z 1006/1106 VRB06KT P6SM SKC
     FM101600 25010G16KT P6SM SKC
     FM101900 26014G23KT P6SM SKC
     FM110200 28010KT P6SM SKC=

USA.gov is the U.S. government's official web portal to all federal, state and local government web resources and services.